Canaan, Connecticut
Current Conditions -  °F | °C
As of 6:32 AM on Thursday 18 Dec 2014 (Local Time) from KPSF Reporting Station
Light Snow Light Snow  
Wind Chill: -7°   Ceiling: 1000
Heat Index: -1°   Visibility: 1.7mi
Dew Point: -3°   Wind: 14mph
Humidity: 88%   Direction: 300°WNW
Pressure: 29.81"   Gusts: 29mph
Location:  42.03°N, 73.33°W
Report Text: KPSF 181132Z AUTO 30012G25KT 1 3/4SM -SN BR OVC010 M01/M03 A2981 RMK AO2 P0000 T10111028
Loading
Personal Weather Stations






























Interactive Weather Map New forecast layout! Learn more

10-Day Weather Forecast

Advertisements
Track Severe Weather on mobile